Time;durP1;ratioP1;P1;durP2;ratioP2;P2;SDS_P1;SDS_P2;PMS_P1;PMS_P2;Temp;Humidity;BMP_temperature;BMP_pressure;BME280_temperature;BME280_humidity;BME280_pressure;Samples;Min_cycle;Max_cycle;Signal;HPM_P1;HPM_P2
2022/05/15 00:00:53;;;;;;;9.60;4.93;;;14.10;85.30;;;;;;5014998;28;20561;-44
2022/05/15 00:03:38;;;;;;;9.40;5.20;;;15.10;86.90;;;;;;5011488;28;20432;-46
2022/05/15 00:06:06;;;;;;;9.37;5.23;;;13.90;85.70;;;;;;5010221;28;20929;-44
2022/05/15 00:08:36;;;;;;;10.07;4.57;;;14.50;87.30;;;;;;5010469;28;20863;-44
2022/05/15 00:11:04;;;;;;;10.23;4.63;;;14.40;87.20;;;;;;5010372;28;20471;-43
2022/05/15 00:13:31;;;;;;;7.20;5.50;;;13.90;86.70;;;;;;5010413;28;20443;-44
2022/05/15 00:15:59;;;;;;;10.33;4.20;;;14.20;87.50;;;;;;5010163;28;20999;-45
2022/05/15 00:18:27;;;;;;;13.73;4.57;;;14.40;88.30;;;;;;5009784;28;20774;-43
2022/05/15 00:20:54;;;;;;;13.70;5.10;;;14.00;87.80;;;;;;5010424;28;20954;-43
2022/05/15 00:23:22;;;;;;;9.40;4.63;;;14.50;88.70;;;;;;5009370;28;20454;-44
2022/05/15 00:25:49;;;;;;;7.53;5.30;;;14.20;88.60;;;;;;5010342;28;20437;-42
2022/05/15 00:28:16;;;;;;;12.13;4.80;;;14.10;89.30;;;;;;5009923;28;20431;-43
2022/05/15 00:30:43;;;;;;;13.93;7.20;;;14.50;90.10;;;;;;5009857;28;20479;-44
2022/05/15 00:33:11;;;;;;;12.03;4.63;;;14.60;89.90;;;;;;5008642;28;20861;-43
2022/05/15 00:35:39;;;;;;;12.10;5.30;;;14.00;89.90;;;;;;5010465;28;20505;-43
2022/05/15 00:38:07;;;;;;;9.80;5.50;;;13.80;89.90;;;;;;5009821;28;20425;-43
2022/05/15 00:40:37;;;;;;;13.73;4.80;;;13.90;90.10;;;;;;5009462;28;20826;-44
2022/05/15 00:43:03;;;;;;;11.50;5.93;;;13.90;90.20;;;;;;5009750;28;20437;-42
2022/05/15 00:45:30;;;;;;;10.60;6.27;;;14.30;90.70;;;;;;5010039;28;20856;-43
2022/05/15 00:47:57;;;;;;;11.00;5.80;;;14.10;90.70;;;;;;5010383;28;20431;-44
2022/05/15 00:50:28;;;;;;;10.40;5.03;;;13.60;90.50;;;;;;5009496;28;20967;-44
2022/05/15 00:52:59;;;;;;;9.57;5.13;;;13.50;90.60;;;;;;5009642;28;20431;-44
2022/05/15 00:55:31;;;;;;;15.43;5.50;;;13.80;90.90;;;;;;5008879;28;20480;-44
2022/05/15 00:58:03;;;;;;;9.23;4.90;;;14.00;91.20;;;;;;5009036;28;20454;-43
2022/05/15 01:00:34;;;;;;;13.80;5.20;;;14.20;91.60;;;;;;5008423;28;20569;-44
2022/05/15 01:03:05;;;;;;;11.30;4.87;;;13.60;91.40;;;;;;5010239;28;20442;-45
2022/05/15 01:05:36;;;;;;;9.87;5.63;;;13.60;91.50;;;;;;5007972;28;20528;-42
2022/05/15 01:08:03;;;;;;;10.27;5.00;;;14.10;91.90;;;;;;5008044;28;20491;-44
2022/05/15 01:10:30;;;;;;;24.83;5.77;;;13.60;91.80;;;;;;5007950;28;20476;-44
2022/05/15 01:12:58;;;;;;;13.43;5.33;;;13.50;91.80;;;;;;5008456;28;20536;-44
2022/05/15 01:15:28;;;;;;;12.00;7.50;;;13.20;91.70;;;;;;5007886;28;20486;-44
2022/05/15 01:17:58;;;;;;;10.60;5.23;;;13.00;91.80;;;;;;5012135;28;20460;-43
2022/05/15 01:20:30;;;;;;;12.20;5.37;;;13.40;92.30;;;;;;5011297;28;21049;-43
2022/05/15 01:22:58;;;;;;;10.13;6.20;;;13.30;92.30;;;;;;5011598;28;20451;-44
2022/05/15 01:25:28;;;;;;;14.93;7.80;;;13.30;92.60;;;;;;5012778;28;20443;-43
2022/05/15 01:28:00;;;;;;;9.90;5.97;;;12.90;92.60;;;;;;5012901;28;20534;-43
2022/05/15 01:30:27;;;;;;;10.40;6.63;;;13.30;92.80;;;;;;5012258;28;20473;-42
2022/05/15 01:32:54;;;;;;;12.73;6.37;;;12.90;92.60;;;;;;5011542;28;20451;-44
2022/05/15 01:35:23;;;;;;;10.33;6.83;;;13.10;92.80;;;;;;5011307;28;20486;-43
2022/05/15 01:37:50;;;;;;;14.83;6.60;;;13.60;93.30;;;;;;5011890;28;20456;-44
2022/05/15 01:40:19;;;;;;;12.93;6.47;;;13.20;93.20;;;;;;5012437;28;20459;-43
2022/05/15 01:42:46;;;;;;;11.37;5.50;;;12.70;93.50;;;;;;5011179;28;20454;-43
2022/05/15 01:45:15;;;;;;;14.80;7.17;;;13.50;93.50;;;;;;5011312;28;20457;-42
2022/05/15 01:47:42;;;;;;;12.73;5.63;;;13.10;93.60;;;;;;5010904;28;20451;-45
2022/05/15 01:50:11;;;;;;;8.47;5.20;;;13.10;93.60;;;;;;5010557;28;21014;-43
2022/05/15 01:52:38;;;;;;;13.50;5.57;;;13.20;93.60;;;;;;5011025;28;20967;-43
2022/05/15 01:55:06;;;;;;;11.57;5.80;;;13.70;93.90;;;;;;5010996;28;20487;-44
2022/05/15 01:57:34;;;;;;;12.67;5.97;;;13.40;93.70;;;;;;5010803;28;20460;-44
2022/05/15 02:00:01;;;;;;;9.53;4.97;;;13.30;93.80;;;;;;5010484;28;20490;-45
2022/05/15 02:02:30;;;;;;;7.23;4.63;;;13.10;93.60;;;;;;5012041;28;20525;-43
2022/05/15 02:04:56;;;;;;;7.40;3.77;;;13.30;93.70;;;;;;5012188;28;20442;-43
2022/05/15 02:07:23;;;;;;;7.40;4.37;;;13.10;93.50;;;;;;5010895;28;21037;-43
2022/05/15 02:09:50;;;;;;;6.80;3.97;;;13.50;93.80;;;;;;5010108;28;20854;-43
2022/05/15 02:12:17;;;;;;;9.03;3.73;;;12.90;93.30;;;;;;5010577;28;20542;-43
2022/05/15 02:14:45;;;;;;;9.73;4.00;;;13.00;93.20;;;;;;5010467;28;21009;-42
2022/05/15 02:17:12;;;;;;;7.03;3.30;;;13.30;93.40;;;;;;5010732;28;20448;-44
2022/05/15 02:19:39;;;;;;;8.13;3.00;;;13.30;93.20;;;;;;5010460;28;20460;-45
2022/05/15 02:22:06;;;;;;;6.37;2.87;;;12.80;93.00;;;;;;5010487;28;20476;-43
2022/05/15 02:24:32;;;;;;;5.63;2.63;;;13.00;93.00;;;;;;5010379;28;20456;-43
2022/05/15 02:26:59;;;;;;;7.60;3.07;;;13.20;93.00;;;;;;5010299;28;20442;-44
2022/05/15 02:29:26;;;;;;;8.30;3.10;;;12.80;92.80;;;;;;5009162;28;20840;-43
2022/05/15 02:31:54;;;;;;;6.20;2.70;;;13.10;93.00;;;;;;5010182;28;20495;-44
2022/05/15 02:34:21;;;;;;;5.77;2.97;;;12.90;92.80;;;;;;5010407;28;20452;-43
2022/05/15 02:36:48;;;;;;;7.63;4.10;;;13.50;93.10;;;;;;5010362;28;20477;-43
2022/05/15 02:39:15;;;;;;;5.90;3.10;;;13.10;93.00;;;;;;5010028;28;20462;-43
2022/05/15 02:41:43;;;;;;;7.53;3.13;;;13.00;93.00;;;;;;5010090;28;20474;-43
2022/05/15 02:44:10;;;;;;;5.17;2.73;;;13.40;93.30;;;;;;5009798;28;20540;-44
2022/05/15 02:46:37;;;;;;;4.83;3.33;;;13.10;93.10;;;;;;5010384;28;20442;-43
2022/05/15 02:51:50;;;;;;;8.77;2.93;;;13.00;93.10;;;;;;5010261;28;20471;-43
2022/05/15 02:54:17;;;;;;;5.83;2.80;;;13.00;93.30;;;;;;5010257;28;20449;-43
2022/05/15 02:56:44;;;;;;;4.70;3.37;;;13.20;93.50;;;;;;5010324;28;20507;-44
2022/05/15 02:59:11;;;;;;;7.47;3.33;;;13.10;93.60;;;;;;5009798;28;20449;-42
2022/05/15 03:01:38;;;;;;;6.13;3.47;;;13.10;93.70;;;;;;5009693;28;20559;-43
2022/05/15 03:04:07;;;;;;;14.53;4.30;;;12.80;93.50;;;;;;5010012;28;20947;-44
2022/05/15 03:06:34;;;;;;;7.43;3.87;;;12.50;93.50;;;;;;5011262;28;20446;-42
2022/05/15 03:09:01;;;;;;;7.80;3.40;;;12.70;93.90;;;;;;5010933;28;20792;-42
2022/05/15 03:11:28;;;;;;;8.50;3.80;;;12.60;94.00;;;;;;5010063;28;20528;-43
2022/05/15 03:13:55;;;;;;;13.70;4.90;;;13.00;94.40;;;;;;5009824;28;20520;-43
2022/05/15 03:16:22;;;;;;;7.60;3.97;;;12.50;94.00;;;;;;5009971;28;20485;-42
2022/05/15 03:18:51;;;;;;;12.30;4.20;;;12.60;94.30;;;;;;5009637;28;20872;-44
2022/05/15 03:21:29;;;;;;;11.27;4.07;;;12.70;94.50;;;;;;5009230;28;20479;-44
2022/05/15 03:23:58;;;;;;;7.97;4.33;;;12.90;94.60;;;;;;5009891;28;20550;-43
2022/05/15 03:26:25;;;;;;;12.80;4.40;;;13.40;95.00;;;;;;5009475;28;20538;-43
2022/05/15 03:28:52;;;;;;;10.83;4.83;;;12.70;94.70;;;;;;5010870;28;20621;-41
2022/05/15 03:31:19;;;;;;;11.70;4.23;;;12.70;94.70;;;;;;5009755;28;20501;-41
2022/05/15 03:33:47;;;;;;;8.33;4.13;;;13.00;94.90;;;;;;5011142;28;20437;-43
2022/05/15 03:36:14;;;;;;;7.73;3.80;;;12.70;94.80;;;;;;5011121;28;20541;-44
2022/05/15 03:38:44;;;;;;;9.07;4.10;;;13.10;95.10;;;;;;5009402;28;20469;-45
2022/05/15 03:41:12;;;;;;;7.23;3.77;;;13.20;95.20;;;;;;5008818;28;20896;-44
2022/05/15 03:43:39;;;;;;;6.83;3.57;;;12.80;95.00;;;;;;5010833;28;20450;-43
2022/05/15 03:46:06;;;;;;;9.80;4.53;;;12.90;95.10;;;;;;5011296;28;20801;-44
2022/05/15 03:48:33;;;;;;;9.17;4.67;;;12.70;95.00;;;;;;5012898;28;20447;-43
2022/05/15 03:51:00;;;;;;;8.97;4.03;;;12.30;94.90;;;;;;5013819;28;20475;-43
2022/05/15 03:53:28;;;;;;;10.57;4.20;;;12.40;95.10;;;;;;5011147;28;20453;-45
2022/05/15 03:55:58;;;;;;;6.93;3.67;;;12.90;95.30;;;;;;5009992;28;20574;-45
2022/05/15 03:58:25;;;;;;;8.37;5.40;;;12.80;95.30;;;;;;5008433;28;20461;-43
2022/05/15 04:00:53;;;;;;;7.10;3.43;;;13.10;95.50;;;;;;5010124;28;20456;-44
2022/05/15 04:03:19;;;;;;;11.13;3.73;;;13.30;95.50;;;;;;5008723;28;20449;-44
2022/05/15 04:05:46;;;;;;;9.83;5.07;;;13.10;95.50;;;;;;5009924;28;20469;-42
2022/05/15 04:08:13;;;;;;;8.70;3.47;;;13.40;95.50;;;;;;5010421;28;20430;-43
2022/05/15 04:10:40;;;;;;;8.73;3.50;;;13.20;95.20;;;;;;5008236;28;20967;-44
2022/05/15 04:13:08;;;;;;;9.17;3.50;;;13.30;95.10;;;;;;5009004;28;20458;-43
2022/05/15 04:15:34;;;;;;;8.20;3.70;;;13.40;94.90;;;;;;5009843;28;20475;-44
2022/05/15 04:18:01;;;;;;;7.10;2.83;;;13.70;94.70;;;;;;5010198;28;20968;-44
2022/05/15 04:20:30;;;;;;;8.17;3.40;;;13.30;94.20;;;;;;5008505;28;20831;-44
2022/05/15 04:22:57;;;;;;;5.60;2.83;;;13.50;94.00;;;;;;5008685;28;20569;-44
2022/05/15 04:25:24;;;;;;;9.63;2.90;;;14.10;94.00;;;;;;5010440;28;20445;-45
2022/05/15 04:27:51;;;;;;;9.43;3.97;;;14.10;93.70;;;;;;5010186;28;20474;-44
2022/05/15 04:30:23;;;;;;;6.13;3.07;;;14.10;93.50;;;;;;5025403;22;20468;-47
2022/05/15 04:32:51;;;;;;;8.90;3.37;;;14.30;93.40;;;;;;5089899;28;20570;-48
2022/05/15 04:35:19;;;;;;;10.00;3.87;;;14.50;93.20;;;;;;5072329;28;20478;-48
2022/05/15 04:37:45;;;;;;;9.37;4.13;;;14.70;93.20;;;;;;5072408;28;20444;-49
2022/05/15 04:40:14;;;;;;;6.60;3.23;;;14.30;92.70;;;;;;5089949;28;20429;-48
2022/05/15 04:42:41;;;;;;;5.77;3.07;;;15.00;92.90;;;;;;5090519;28;20433;-48
2022/05/15 04:45:09;;;;;;;7.40;2.97;;;14.70;92.50;;;;;;5090534;28;20428;-47
2022/05/15 04:47:37;;;;;;;7.07;3.50;;;14.90;92.50;;;;;;5090738;28;20439;-48
2022/05/15 04:50:05;;;;;;;8.67;3.30;;;14.40;92.00;;;;;;5090021;28;20436;-47
2022/05/15 04:52:32;;;;;;;8.73;3.27;;;14.70;92.00;;;;;;5093818;28;20504;-47
2022/05/15 04:54:58;;;;;;;9.10;2.97;;;15.00;91.90;;;;;;5094979;28;20798;-46
2022/05/15 04:57:25;;;;;;;7.03;3.07;;;14.90;91.60;;;;;;5094434;28;20578;-48
2022/05/15 04:59:52;;;;;;;9.00;3.40;;;15.40;91.70;;;;;;5075992;28;20504;-48
2022/05/15 05:02:18;;;;;;;6.30;3.17;;;15.10;91.40;;;;;;5094545;28;20445;-48
2022/05/15 05:04:46;;;;;;;4.60;2.60;;;15.00;91.30;;;;;;5076333;28;20547;-47
2022/05/15 05:07:13;;;;;;;9.30;2.80;;;15.10;91.20;;;;;;5094573;28;20431;-48
2022/05/15 05:09:40;;;;;;;9.20;3.00;;;14.70;90.80;;;;;;5076443;28;20451;-48
2022/05/15 05:12:08;;;;;;;6.30;2.63;;;15.40;91.10;;;;;;5096115;28;20463;-47
2022/05/15 05:14:34;;;;;;;6.20;2.47;;;15.10;90.90;;;;;;5096527;28;20429;-48
2022/05/15 05:17:01;;;;;;;6.30;3.60;;;15.10;90.70;;;;;;5096446;28;20480;-46
2022/05/15 05:19:28;;;;;;;5.37;2.23;;;15.40;90.80;;;;;;5095809;28;20433;-47
2022/05/15 05:21:55;;;;;;;5.07;2.10;;;15.20;90.60;;;;;;5096866;28;20463;-48
2022/05/15 05:24:22;;;;;;;5.77;2.00;;;15.80;90.80;;;;;;5096506;28;20447;-47
2022/05/15 05:26:49;;;;;;;6.30;3.10;;;15.50;90.60;;;;;;5096097;28;20531;-47
2022/05/15 05:29:16;;;;;;;6.67;2.50;;;15.90;90.70;;;;;;5095619;28;20444;-48
2022/05/15 05:31:42;;;;;;;4.10;2.40;;;15.60;90.40;;;;;;5096108;28;20488;-48
2022/05/15 05:34:09;;;;;;;2.80;1.83;;;15.90;90.40;;;;;;5095478;28;20420;-48
2022/05/15 05:36:36;;;;;;;9.60;2.40;;;15.40;90.00;;;;;;5094423;28;20475;-48
2022/05/15 05:39:04;;;;;;;4.10;2.20;;;15.70;90.20;;;;;;5093809;28;20442;-48
2022/05/15 05:41:31;;;;;;;5.03;1.77;;;15.30;89.90;;;;;;5075612;28;21027;-49
2022/05/15 05:43:59;;;;;;;6.03;2.57;;;15.30;89.80;;;;;;5093929;28;20435;-49
2022/05/15 05:46:27;;;;;;;4.63;3.17;;;15.80;90.00;;;;;;5075638;28;20548;-48
2022/05/15 05:48:54;;;;;;;9.40;3.00;;;15.90;90.00;;;;;;5074978;28;20704;-48
2022/05/15 05:51:21;;;;;;;5.20;2.57;;;16.40;90.20;;;;;;5093492;28;20444;-47
2022/05/15 05:53:48;;;;;;;4.30;2.80;;;15.70;89.70;;;;;;5093947;28;20447;-47
2022/05/15 05:56:16;;;;;;;4.10;2.20;;;16.10;89.90;;;;;;5093675;28;20468;-48
2022/05/15 05:58:42;;;;;;;7.97;3.00;;;16.60;90.00;;;;;;5093463;28;20433;-47
2022/05/15 06:01:09;;;;;;;5.53;2.17;;;16.20;89.30;;;;;;5093387;28;20579;-47
2022/05/15 06:06:19;;;;;;;4.70;2.33;;;15.90;88.30;;;;;;5042380;28;20534;-48
2022/05/15 06:08:46;;;;;;;8.80;2.23;;;16.40;88.70;;;;;;5093237;28;20425;-46
2022/05/15 06:11:13;;;;;;;4.10;2.23;;;16.30;88.30;;;;;;5093648;28;20459;-47
2022/05/15 06:13:41;;;;;;;5.90;1.93;;;16.30;88.30;;;;;;5093773;28;20428;-47
2022/05/15 06:16:09;;;;;;;6.47;2.27;;;16.30;87.90;;;;;;5093637;28;20566;-48
2022/05/15 06:18:36;;;;;;;7.23;2.50;;;16.60;87.90;;;;;;5092861;28;20783;-47
2022/05/15 06:21:03;;;;;;;7.90;3.03;;;16.10;87.20;;;;;;5093818;28;20642;-48
2022/05/15 06:23:29;;;;;;;6.43;2.40;;;16.50;87.70;;;;;;5093354;28;20798;-48
2022/05/15 06:25:56;;;;;;;8.67;2.50;;;16.30;87.40;;;;;;5093382;28;20429;-48
2022/05/15 06:28:23;;;;;;;4.60;2.40;;;16.10;87.20;;;;;;5093236;28;20431;-50
2022/05/15 06:30:51;;;;;;;5.30;2.27;;;16.30;87.50;;;;;;5093137;28;20968;-47
2022/05/15 06:33:18;;;;;;;6.07;2.10;;;16.80;88.10;;;;;;5093505;28;20421;-48
2022/05/15 06:35:45;;;;;;;8.90;2.00;;;16.10;87.20;;;;;;5092989;28;20439;-48
2022/05/15 06:38:11;;;;;;;5.37;2.13;;;16.70;87.90;;;;;;5093003;28;20858;-47
2022/05/15 06:40:38;;;;;;;8.10;2.73;;;16.90;87.40;;;;;;5093004;28;20449;-46
2022/05/15 06:43:05;;;;;;;7.50;2.63;;;16.40;86.50;;;;;;5093625;28;20429;-45
2022/05/15 06:45:32;;;;;;;7.83;2.20;;;16.80;86.80;;;;;;5093957;28;20921;-47
2022/05/15 06:48:00;;;;;;;4.10;2.17;;;16.80;86.60;;;;;;5093500;28;20429;-46
2022/05/15 06:50:27;;;;;;;5.47;1.93;;;16.40;86.70;;;;;;5092508;28;20559;-48
2022/05/15 06:52:53;;;;;;;4.60;2.00;;;16.80;87.10;;;;;;5092465;28;20425;-48
2022/05/15 06:55:23;;;;;;;5.73;2.57;;;16.60;86.40;;;;;;5092575;28;20909;-48
2022/05/15 06:57:50;;;;;;;5.93;2.30;;;17.00;86.30;;;;;;5092874;28;20487;-48
2022/05/15 07:00:19;;;;;;;6.27;2.47;;;15.90;85.20;;;;;;5074037;28;20933;-49
2022/05/15 07:02:46;;;;;;;6.07;2.00;;;16.60;85.30;;;;;;5092988;28;20444;-49
2022/05/15 07:05:17;;;;;;;3.83;2.33;;;16.90;85.60;;;;;;5092563;28;20444;-47
2022/05/15 07:07:44;;;;;;;4.00;2.10;;;16.80;85.30;;;;;;5092557;28;20426;-48
2022/05/15 07:10:12;;;;;;;7.03;2.17;;;16.70;84.30;;;;;;5092023;28;20434;-49
2022/05/15 07:12:38;;;;;;;5.23;3.13;;;16.70;84.40;;;;;;5092445;28;20426;-49
2022/05/15 07:15:07;;;;;;;4.83;1.60;;;16.90;84.40;;;;;;5092083;28;20437;-48
2022/05/15 07:17:34;;;;;;;5.83;2.40;;;16.70;84.30;;;;;;5092665;28;20984;-48
2022/05/15 07:20:01;;;;;;;6.93;2.30;;;16.90;84.50;;;;;;5092785;28;20776;-49
2022/05/15 07:22:29;;;;;;;3.37;1.80;;;16.80;84.50;;;;;;5093337;28;20548;-47
2022/05/15 07:24:56;;;;;;;3.60;1.73;;;16.90;84.60;;;;;;5092249;28;20992;-49
2022/05/15 07:27:22;;;;;;;5.30;2.10;;;16.70;83.60;;;;;;5091930;28;20436;-48
2022/05/15 07:29:49;;;;;;;3.50;1.80;;;16.90;82.10;;;;;;5091693;28;20429;-47
2022/05/15 07:32:16;;;;;;;4.63;1.83;;;17.20;82.30;;;;;;5091509;28;20846;-48
2022/05/15 07:34:42;;;;;;;6.27;2.03;;;16.60;81.60;;;;;;5091892;28;20437;-48
2022/05/15 07:37:11;;;;;;;3.17;1.70;;;16.70;81.60;;;;;;5073329;28;20487;-48
2022/05/15 07:39:39;;;;;;;4.10;2.53;;;16.70;80.80;;;;;;5091210;28;20433;-47
2022/05/15 07:42:07;;;;;;;3.27;1.50;;;17.10;80.90;;;;;;5091602;28;20489;-47
2022/05/15 07:44:34;;;;;;;5.57;1.67;;;16.70;80.10;;;;;;5091811;28;20828;-49
2022/05/15 07:47:00;;;;;;;6.10;1.83;;;16.70;79.50;;;;;;5091656;28;20799;-47
2022/05/15 07:49:27;;;;;;;4.03;1.60;;;16.80;79.00;;;;;;5091075;28;20618;-48
2022/05/15 07:51:54;;;;;;;4.37;1.93;;;16.70;79.60;;;;;;5091091;28;20464;-48
2022/05/15 07:54:20;;;;;;;2.47;1.50;;;16.70;79.80;;;;;;5091147;28;20433;-48
2022/05/15 07:56:48;;;;;;;4.43;2.10;;;16.70;79.40;;;;;;5091009;28;20576;-48
2022/05/15 07:59:15;;;;;;;5.60;1.83;;;16.70;79.40;;;;;;5090623;28;20948;-46
2022/05/15 08:01:42;;;;;;;4.27;1.53;;;16.70;79.60;;;;;;5091215;28;20451;-48
2022/05/15 08:04:09;;;;;;;5.67;1.90;;;16.40;78.80;;;;;;5090918;28;20425;-47
2022/05/15 08:09:20;;;;;;;4.03;2.03;;;16.80;79.50;;;;;;5090512;28;20437;-47
2022/05/15 08:11:48;;;;;;;1.80;1.40;;;16.80;79.70;;;;;;5090864;28;20449;-47
2022/05/15 08:14:16;;;;;;;4.73;1.50;;;16.80;78.70;;;;;;5090856;28;20433;-49
2022/05/15 08:16:43;;;;;;;2.67;1.40;;;16.50;78.00;;;;;;5090680;28;20474;-47
2022/05/15 08:24:39;;;;;;;3.43;1.73;;;16.80;76.20;;;;;;5072961;28;20519;-49
2022/05/15 08:27:09;;;;;;;5.00;1.20;;;16.80;76.00;;;;;;5090066;28;20425;-49
2022/05/15 08:29:36;;;;;;;6.03;1.80;;;16.80;76.00;;;;;;5090698;28;20512;-49
2022/05/15 08:32:03;;;;;;;3.70;1.50;;;16.40;74.90;;;;;;5090268;28;20470;-48
2022/05/15 08:34:30;;;;;;;2.30;1.40;;;17.20;75.10;;;;;;5090844;28;20426;-46
2022/05/15 08:36:57;;;;;;;4.50;1.70;;;17.10;74.50;;;;;;5091071;28;20472;-48
2022/05/15 08:39:23;;;;;;;3.73;1.80;;;16.70;73.90;;;;;;5090438;28;20494;-47
2022/05/15 08:41:54;;;;;;;4.80;1.60;;;17.40;73.90;;;;;;5090428;28;20475;-47
2022/05/15 08:44:29;;;;;;;4.30;1.37;;;17.20;73.30;;;;;;5090459;28;20437;-48
2022/05/15 08:47:18;;;;;;;2.03;1.00;;;17.00;73.40;;;;;;5091005;28;20430;-46
2022/05/15 08:49:49;;;;;;;2.80;1.30;;;17.40;72.10;;;;;;5090792;28;20435;-48
2022/05/15 08:52:18;;;;;;;2.43;1.00;;;17.20;71.20;;;;;;5091262;28;20547;-47
2022/05/15 08:54:52;;;;;;;4.43;1.37;;;17.20;70.10;;;;;;5090827;28;20467;-49
2022/05/15 08:57:25;;;;;;;3.60;1.30;;;17.00;69.70;;;;;;5091405;28;20485;-48
2022/05/15 08:59:57;;;;;;;2.83;1.30;;;17.10;70.30;;;;;;5091340;28;20431;-48
2022/05/15 09:02:25;;;;;;;4.30;1.70;;;17.10;70.30;;;;;;5073631;28;20891;-48
2022/05/15 09:04:53;;;;;;;4.20;1.50;;;17.20;70.80;;;;;;5092213;28;20430;-46
2022/05/15 09:07:36;;;;;;;3.80;1.73;;;17.30;71.10;;;;;;5091557;28;20460;-46
2022/05/15 09:10:16;;;;;;;6.60;1.40;;;17.70;72.10;;;;;;5090740;28;20434;-47
2022/05/15 09:12:46;;;;;;;4.70;1.30;;;16.80;69.90;;;;;;5091203;28;20434;-49
2022/05/15 09:15:18;;;;;;;2.90;1.30;;;17.60;70.50;;;;;;5090936;28;20534;-50
2022/05/15 09:17:47;;;;;;;3.73;1.40;;;17.60;70.40;;;;;;5090857;28;20582;-48
2022/05/15 09:20:20;;;;;;;2.67;1.20;;;17.60;69.40;;;;;;5090741;28;20478;-48
2022/05/15 09:22:55;;;;;;;5.30;2.20;;;17.90;68.90;;;;;;5090564;28;20529;-48
2022/05/15 09:25:25;;;;;;;2.60;1.30;;;17.70;68.60;;;;;;5091179;28;20433;-48
2022/05/15 09:28:01;;;;;;;4.40;1.20;;;17.40;68.10;;;;;;5089814;28;20425;-49
2022/05/15 09:30:36;;;;;;;5.57;1.50;;;17.90;68.60;;;;;;5089463;28;20429;-48
2022/05/15 09:33:03;;;;;;;3.37;1.33;;;17.60;68.40;;;;;;5090190;28;20425;-47
2022/05/15 09:35:36;;;;;;;3.70;1.40;;;17.70;68.10;;;;;;5090341;28;20426;-47
2022/05/15 09:43:37;;;;;;;2.43;1.00;;;18.00;65.50;;;;;;5093617;28;20518;-49
2022/05/15 09:46:14;;;;;;;4.77;1.33;;;17.30;65.00;;;;;;5093418;28;20538;-47
2022/05/15 09:48:49;;;;;;;5.10;1.63;;;17.90;64.90;;;;;;5093267;28;20434;-48
2022/05/15 09:51:26;;;;;;;2.67;1.50;;;17.70;65.40;;;;;;5093326;28;20519;-47
2022/05/15 09:53:55;;;;;;;2.20;1.83;;;17.80;65.70;;;;;;5093628;28;20437;-49
2022/05/15 09:56:29;;;;;;;1.53;0.93;;;18.00;66.10;;;;;;5093499;28;20432;-48
2022/05/15 09:58:59;;;;;;;2.80;1.20;;;17.90;65.60;;;;;;5093413;28;20481;-48
2022/05/15 10:01:35;;;;;;;3.77;1.77;;;18.10;65.90;;;;;;5093069;28;20460;-48
2022/05/15 10:04:03;;;;;;;3.33;1.13;;;18.00;65.70;;;;;;5093331;28;20438;-48
2022/05/15 10:06:33;;;;;;;3.27;1.13;;;17.90;63.70;;;;;;5092886;28;20456;-48
2022/05/15 10:09:10;;;;;;;2.30;0.97;;;18.00;63.40;;;;;;5093054;28;20950;-48
2022/05/15 10:11:39;;;;;;;5.10;1.40;;;18.20;63.60;;;;;;5075384;28;20499;-49
2022/05/15 10:14:08;;;;;;;2.23;1.00;;;18.10;64.10;;;;;;5093063;28;20439;-47
2022/05/15 10:16:46;;;;;;;3.77;1.20;;;18.10;64.10;;;;;;5093439;28;20823;-47
2022/05/15 10:19:20;;;;;;;1.63;1.10;;;18.70;64.20;;;;;;5092400;28;20451;-48
2022/05/15 10:21:56;;;;;;;1.57;0.97;;;18.10;62.70;;;;;;5092571;28;20450;-49
2022/05/15 10:24:27;;;;;;;2.03;1.10;;;18.10;62.80;;;;;;5093349;28;20437;-47
2022/05/15 10:27:02;;;;;;;2.10;1.00;;;18.70;63.70;;;;;;5093103;28;20430;-47
2022/05/15 10:29:36;;;;;;;2.90;1.03;;;17.80;61.50;;;;;;5094500;28;21025;-47
2022/05/15 10:32:12;;;;;;;2.23;1.00;;;18.10;61.50;;;;;;5069297;22;20503;-44
2022/05/15 10:34:41;;;;;;;3.10;1.03;;;18.20;60.90;;;;;;5013938;28;20449;-44
2022/05/15 10:37:40;;;;;;;3.20;1.33;;;18.10;60.60;;;;;;5012654;28;20500;-44
2022/05/15 10:40:19;;;;;;;1.27;0.77;;;18.00;59.70;;;;;;5024847;28;20460;-42
2022/05/15 10:42:55;;;;;;;1.97;1.00;;;18.40;59.60;;;;;;5013411;28;20507;-42
2022/05/15 10:45:41;;;;;;;3.00;1.10;;;18.30;59.40;;;;;;5012965;28;20443;-43
2022/05/15 10:48:32;;;;;;;2.23;1.00;;;18.20;58.80;;;;;;5012492;28;20435;-44
2022/05/15 10:51:05;;;;;;;1.70;1.13;;;18.40;58.90;;;;;;5013030;28;20460;-43
2022/05/15 10:59:44;;;;;;;2.83;1.20;;;18.80;58.60;;;;;;5011552;28;20874;-44
2022/05/15 11:02:36;;;;;;;1.70;0.93;;;18.40;58.10;;;;;;5011060;28;20512;-45
2022/05/15 11:05:12;;;;;;;2.13;1.20;;;18.50;57.80;;;;;;5032864;28;20451;-42
2022/05/15 11:07:43;;;;;;;3.10;0.80;;;18.60;57.90;;;;;;5012036;28;20459;-43
2022/05/15 11:10:18;;;;;;;2.70;1.20;;;18.70;57.60;;;;;;5010661;28;20794;-44
2022/05/15 11:12:53;;;;;;;2.27;1.07;;;18.50;57.30;;;;;;5010062;28;20470;-44
2022/05/15 11:15:44;;;;;;;3.10;1.30;;;18.60;57.50;;;;;;5011479;28;20837;-44
2022/05/15 11:18:23;;;;;;;4.20;1.67;;;18.60;57.60;;;;;;5012898;28;20506;-43
2022/05/15 11:20:54;;;;;;;2.60;1.23;;;18.60;57.90;;;;;;5011902;28;20441;-44
2022/05/15 11:23:26;;;;;;;2.27;1.10;;;18.60;57.80;;;;;;5012557;28;20444;-43
2022/05/15 11:25:56;;;;;;;2.83;1.30;;;18.80;57.30;;;;;;5011439;28;20454;-44
2022/05/15 11:28:31;;;;;;;7.33;5.00;;;18.40;56.50;;;;;;5011107;28;20440;-44
2022/05/15 11:31:03;;;;;;;2.00;1.13;;;18.90;56.80;;;;;;5011259;28;20474;-44
2022/05/15 11:33:34;;;;;;;2.23;1.00;;;18.80;56.60;;;;;;5011348;28;20452;-44
2022/05/15 11:36:12;;;;;;;3.77;1.50;;;18.90;57.10;;;;;;5012784;28;20803;-43
2022/05/15 11:38:59;;;;;;;3.33;1.20;;;19.00;56.90;;;;;;5012381;28;20531;-45
2022/05/15 11:41:39;;;;;;;2.50;1.20;;;18.80;56.70;;;;;;5011577;28;20478;-43
2022/05/15 11:44:27;;;;;;;1.37;0.80;;;19.00;57.10;;;;;;5011611;28;20439;-43
2022/05/15 11:47:02;;;;;;;3.90;1.30;;;18.60;57.00;;;;;;5011225;28;20458;-45
2022/05/15 11:49:34;;;;;;;2.53;1.47;;;18.80;56.90;;;;;;5010897;28;20467;-43
2022/05/15 11:52:33;;;;;;;3.13;1.20;;;18.40;56.70;;;;;;5011644;28;20677;-43
2022/05/15 11:55:00;;;;;;;1.70;1.23;;;18.90;57.00;;;;;;5012903;28;20463;-42
2022/05/15 11:57:35;;;;;;;7.77;1.90;;;19.00;56.80;;;;;;5012614;28;20539;-44
2022/05/15 12:00:04;;;;;;;3.10;1.30;;;19.30;56.70;;;;;;5009803;28;20450;-44
2022/05/15 12:02:49;;;;;;;1.83;0.80;;;18.90;56.10;;;;;;5009886;28;20904;-44
2022/05/15 12:05:24;;;;;;;4.70;3.10;;;19.10;56.00;;;;;;5011025;28;20440;-43
2022/05/15 12:07:56;;;;;;;1.77;0.93;;;19.00;56.10;;;;;;5010856;28;20432;-47
2022/05/15 12:10:54;;;;;;;2.80;1.37;;;19.10;55.30;;;;;;5010483;28;20535;-44
2022/05/15 12:13:33;;;;;;;2.80;1.17;;;19.20;55.60;;;;;;5011313;28;20514;-44
2022/05/15 12:16:17;;;;;;;2.43;1.10;;;19.20;55.70;;;;;;5011204;28;20447;-43
2022/05/15 12:18:44;;;;;;;1.70;1.30;;;19.20;55.70;;;;;;5011247;28;20476;-45
2022/05/15 12:21:14;;;;;;;1.50;1.00;;;19.00;55.50;;;;;;5011090;28;20472;-44
2022/05/15 12:24:27;;;;;;;2.97;1.50;;;19.40;55.70;;;;;;5010421;28;20455;-44
2022/05/15 12:26:44;;;;;;;2.90;1.00;;;19.30;55.20;;;;;;5010541;28;20470;-43
2022/05/15 12:29:25;;;;;;;3.70;1.63;;;19.30;55.40;;;;;;5010539;28;20505;-43
2022/05/15 12:31:54;;;;;;;3.00;1.33;;;19.20;55.60;;;;;;5010069;28;20471;-44
2022/05/15 12:34:26;;;;;;;4.07;1.30;;;19.60;55.40;;;;;;5011193;28;20457;-45
2022/05/15 12:36:56;;;;;;;1.80;1.10;;;19.30;55.20;;;;;;5010826;28;20509;-43
2022/05/15 12:39:27;;;;;;;3.50;1.20;;;19.50;55.40;;;;;;5012241;28;20500;-44
2022/05/15 12:41:59;;;;;;;1.90;1.30;;;19.10;55.40;;;;;;5012522;28;20462;-45
2022/05/15 12:44:31;;;;;;;2.27;1.20;;;19.20;55.80;;;;;;5013393;28;20443;-44
2022/05/15 12:47:00;;;;;;;1.83;1.20;;;19.40;56.10;;;;;;5013196;28;20976;-45
2022/05/15 12:49:32;;;;;;;4.00;1.20;;;19.10;56.00;;;;;;5013539;28;20436;-44
2022/05/15 12:52:10;;;;;;;4.80;1.00;;;19.70;56.20;;;;;;5013752;28;20472;-43
2022/05/15 12:54:38;;;;;;;2.63;1.10;;;19.50;55.60;;;;;;5014146;28;20803;-45
2022/05/15 12:57:08;;;;;;;2.03;1.63;;;19.50;55.70;;;;;;5012613;28;20456;-43
2022/05/15 12:59:36;;;;;;;1.90;1.13;;;19.30;55.40;;;;;;5010120;28;20520;-45
2022/05/15 13:02:20;;;;;;;1.80;1.13;;;19.60;55.60;;;;;;5010682;28;20452;-44
2022/05/15 13:04:49;;;;;;;2.90;1.53;;;19.70;55.60;;;;;;5013646;28;20444;-45
2022/05/15 13:07:15;;;;;;;3.30;1.10;;;19.70;55.90;;;;;;5013300;28;20439;-43
2022/05/15 13:09:44;;;;;;;2.10;1.30;;;19.60;55.80;;;;;;5012850;28;20443;-44
2022/05/15 13:12:15;;;;;;;1.60;1.10;;;19.70;56.20;;;;;;5015184;28;20542;-42
2022/05/15 13:14:48;;;;;;;2.40;1.27;;;19.40;55.60;;;;;;5017140;28;20437;-45
2022/05/15 13:17:23;;;;;;;4.87;2.33;;;19.50;54.80;;;;;;5014955;28;20718;-44
2022/05/15 13:19:52;;;;;;;3.07;1.87;;;19.50;55.50;;;;;;5016640;28;20569;-45
2022/05/15 13:22:22;;;;;;;3.50;1.20;;;19.80;55.70;;;;;;5016191;28;20460;-46
2022/05/15 13:25:00;;;;;;;2.40;1.00;;;19.50;55.40;;;;;;5017334;28;20428;-44